createdAt,value
2019-02-15T00:02:11.449Z,99.86
2019-02-15T00:04:43.548Z,99.93
2019-02-15T00:07:15.538Z,100.00
2019-02-15T00:09:47.646Z,100.00
2019-02-15T00:12:19.866Z,100.00
2019-02-15T00:14:51.988Z,100.00
2019-02-15T00:17:41.277Z,100.00
2019-02-15T00:20:30.496Z,100.00
2019-02-15T00:23:02.571Z,100.00
2019-02-15T00:25:34.697Z,100.00
2019-02-15T00:28:07.952Z,100.00
2019-02-15T00:30:39.825Z,100.00
2019-02-15T00:33:14.351Z,100.00
2019-02-15T00:35:59.229Z,100.00
2019-02-15T00:38:31.344Z,100.00
2019-02-15T00:41:04.980Z,100.00
2019-02-15T00:43:36.907Z,100.00
2019-02-15T00:46:30.908Z,100.00
2019-02-15T00:49:03.988Z,100.00
2019-02-15T00:51:57.751Z,100.00
2019-02-15T00:54:44.558Z,100.00
2019-02-15T00:57:34.244Z,100.00
2019-02-15T01:00:26.212Z,100.00
2019-02-15T01:03:24.673Z,100.00
2019-02-15T01:06:09.124Z,100.00
2019-02-15T01:08:57.682Z,100.00
2019-02-15T01:11:33.336Z,100.00
2019-02-15T01:14:05.296Z,100.00
2019-02-15T01:16:37.160Z,100.00
2019-02-15T01:19:09.032Z,100.00
2019-02-15T01:21:40.858Z,100.00
2019-02-15T01:24:13.717Z,100.00
2019-02-15T01:26:47.375Z,100.00
2019-02-15T01:29:37.081Z,100.00
2019-02-15T01:32:26.197Z,100.00
2019-02-15T01:35:18.483Z,100.00
2019-02-15T01:38:07.625Z,100.00
2019-02-15T01:40:56.333Z,100.00
2019-02-15T01:43:54.776Z,100.00
2019-02-15T01:46:42.157Z,100.00
2019-02-15T01:49:14.405Z,100.00
2019-02-15T01:51:46.340Z,100.00
2019-02-15T01:54:18.764Z,100.00
2019-02-15T01:56:52.667Z,100.00
2019-02-15T01:59:25.075Z,100.00
2019-02-15T02:01:57.428Z,100.00
2019-02-15T02:04:29.644Z,100.00
2019-02-15T02:07:01.914Z,100.00
2019-02-15T02:09:34.151Z,100.00
2019-02-15T02:12:06.483Z,100.00
2019-02-15T02:14:38.636Z,100.00
2019-02-15T02:17:10.709Z,100.00
2019-02-15T02:19:42.832Z,100.00
2019-02-15T02:22:15.199Z,100.00
2019-02-15T02:24:47.617Z,100.00
2019-02-15T02:27:19.848Z,100.00
2019-02-15T02:29:52.117Z,100.00
2019-02-15T02:32:24.463Z,100.00
2019-02-15T02:34:56.325Z,100.00
2019-02-15T02:37:34.145Z,100.00
2019-02-15T02:40:06.832Z,100.00
2019-02-15T02:42:39.111Z,100.00
2019-02-15T02:45:11.378Z,100.00
2019-02-15T02:47:43.322Z,100.00
2019-02-15T02:50:15.165Z,100.00
2019-02-15T02:52:47.083Z,100.00
2019-02-15T02:55:18.933Z,100.00
2019-02-15T02:57:50.932Z,100.00
2019-02-15T03:00:22.730Z,100.00
2019-02-15T03:02:54.783Z,100.00
2019-02-15T03:05:26.621Z,100.00
2019-02-15T03:07:58.503Z,100.00
2019-02-15T03:10:30.379Z,100.00
2019-02-15T03:13:02.265Z,100.00
2019-02-15T03:15:34.447Z,100.00
2019-02-15T03:18:06.408Z,100.00
2019-02-15T03:20:38.349Z,100.00
2019-02-15T03:23:13.563Z,100.00
2019-02-15T03:25:48.421Z,100.00
2019-02-15T03:28:20.437Z,100.00
2019-02-15T03:30:52.424Z,100.00
2019-02-15T03:33:24.460Z,100.00
2019-02-15T03:35:59.091Z,100.00
2019-02-15T03:38:44.885Z,100.00
2019-02-15T03:41:30.435Z,100.00
2019-02-15T03:44:02.456Z,100.00
2019-02-15T03:46:34.397Z,100.00
2019-02-15T03:49:06.235Z,100.00
2019-02-15T03:51:38.207Z,100.00
2019-02-15T03:54:10.136Z,100.00
2019-02-15T03:56:43.159Z,100.00
2019-02-15T03:59:16.040Z,100.00
2019-02-15T04:01:51.319Z,100.00
2019-02-15T04:04:23.505Z,100.00
2019-02-15T04:06:55.462Z,100.00
2019-02-15T04:09:29.173Z,100.00
2019-02-15T04:12:04.157Z,100.00
2019-02-15T04:14:37.754Z,100.00
2019-02-15T04:17:12.868Z,100.00
2019-02-15T04:19:46.563Z,100.00
2019-02-15T04:22:18.486Z,100.00
2019-02-15T04:24:56.730Z,99.94
2019-02-15T04:27:28.670Z,99.75
2019-02-15T04:30:00.719Z,99.63
2019-02-15T04:32:36.800Z,99.68
2019-02-15T04:35:12.026Z,99.68
2019-02-15T04:37:45.732Z,99.78
2019-02-15T04:40:18.899Z,99.86
2019-02-15T04:42:52.498Z,99.81
2019-02-15T04:45:29.521Z,99.64
2019-02-15T04:48:04.120Z,99.78
2019-02-15T04:50:42.359Z,99.81
2019-02-15T04:53:14.630Z,99.94
2019-02-15T04:55:47.936Z,100.00
2019-02-15T04:58:20.466Z,100.00
2019-02-15T05:00:55.339Z,100.00
2019-02-15T05:03:32.140Z,100.00
2019-02-15T05:06:08.497Z,100.00
2019-02-15T05:08:42.353Z,100.00
2019-02-15T05:11:14.386Z,100.00
2019-02-15T05:13:46.290Z,100.00
2019-02-15T05:16:20.268Z,100.00
2019-02-15T05:18:52.250Z,100.00
2019-02-15T05:21:24.345Z,100.00
2019-02-15T05:23:56.613Z,100.00
2019-02-15T05:26:33.639Z,100.00
2019-02-15T05:29:06.913Z,100.00
2019-02-15T05:31:38.860Z,100.00
2019-02-15T05:34:10.707Z,100.00
2019-02-15T05:36:43.496Z,100.00
2019-02-15T05:39:17.141Z,100.00
2019-02-15T05:41:55.146Z,100.00
2019-02-15T05:44:30.759Z,100.00
2019-02-15T05:47:05.669Z,100.00
2019-02-15T05:49:41.257Z,100.00
2019-02-15T05:52:14.740Z,100.00
2019-02-15T05:54:48.944Z,100.00
2019-02-15T05:57:29.323Z,100.00
2019-02-15T06:00:06.311Z,100.00
2019-02-15T06:02:40.039Z,100.00
2019-02-15T06:05:14.426Z,100.00
2019-02-15T06:07:48.854Z,100.00
2019-02-15T06:10:22.107Z,100.00
2019-02-15T06:12:56.136Z,100.00
2019-02-15T06:15:30.935Z,100.00
2019-02-15T06:18:03.386Z,100.00
2019-02-15T06:20:36.797Z,100.00
2019-02-15T06:23:12.614Z,100.00
2019-02-15T06:25:47.557Z,100.00
2019-02-15T06:28:19.677Z,100.00
2019-02-15T06:30:51.933Z,100.00
2019-02-15T06:33:23.981Z,100.00
2019-02-15T06:35:57.820Z,100.00
2019-02-15T06:38:34.829Z,100.00
2019-02-15T06:41:03.693Z,100.00
2019-02-15T06:43:35.643Z,100.00
2019-02-15T06:46:07.676Z,100.00
2019-02-15T06:48:40.609Z,100.00
2019-02-15T06:51:12.916Z,100.00
2019-02-15T06:53:46.747Z,100.00
2019-02-15T06:56:32.773Z,100.00
2019-02-15T06:59:22.133Z,100.00
2019-02-15T07:02:24.793Z,100.00
2019-02-15T07:05:17.456Z,100.00
2019-02-15T07:07:49.923Z,100.00
2019-02-15T07:10:21.878Z,100.00
2019-02-15T07:12:53.720Z,100.00
2019-02-15T07:15:33.409Z,99.36
2019-02-15T07:18:06.633Z,98.72
2019-02-15T07:20:40.563Z,98.36
2019-02-15T07:23:12.379Z,97.95
2019-02-15T07:25:45.827Z,97.67
2019-02-15T07:28:17.869Z,97.25
2019-02-15T07:30:49.765Z,96.98
2019-02-15T07:33:23.420Z,96.57
2019-02-15T07:35:55.285Z,96.00
2019-02-15T07:38:27.241Z,95.68
2019-02-15T07:40:59.130Z,95.75
2019-02-15T07:43:31.004Z,94.77
2019-02-15T07:46:03.017Z,94.97
2019-02-15T07:48:34.923Z,95.05
2019-02-15T07:51:09.686Z,94.03
2019-02-15T07:53:40.385Z,93.93
2019-02-15T07:56:12.271Z,94.75
2019-02-15T07:58:44.302Z,94.24
2019-02-15T08:01:16.116Z,92.64
2019-02-15T08:03:48.071Z,91.72
2019-02-15T08:06:20.134Z,91.15
2019-02-15T08:08:51.975Z,90.77
2019-02-15T08:11:23.853Z,90.47
2019-02-15T08:13:55.776Z,89.95
2019-02-15T08:16:27.660Z,89.33
2019-02-15T08:18:59.712Z,89.33
2019-02-15T08:21:31.688Z,89.17
2019-02-15T08:24:03.602Z,88.94
2019-02-15T08:26:35.464Z,88.59
2019-02-15T08:29:07.526Z,88.26
2019-02-15T08:31:39.412Z,88.17
2019-02-15T08:34:11.346Z,87.79
2019-02-15T08:36:43.302Z,87.71
2019-02-15T08:39:15.204Z,87.01
2019-02-15T08:42:00.748Z,86.82
2019-02-15T08:44:20.684Z,86.16
2019-02-15T08:46:52.584Z,85.54
2019-02-15T08:49:24.493Z,85.46
2019-02-15T08:51:56.388Z,85.44
2019-02-15T08:54:28.279Z,85.12
2019-02-15T08:57:00.319Z,84.73
2019-02-15T08:59:32.252Z,84.70
2019-02-15T09:02:19.988Z,85.62
2019-02-15T09:04:51.992Z,84.55
2019-02-15T09:07:23.828Z,84.42
2019-02-15T09:09:55.675Z,83.48
2019-02-15T09:12:27.517Z,83.03
2019-02-15T09:14:59.354Z,82.48
2019-02-15T09:17:31.198Z,84.45
2019-02-15T09:20:03.000Z,84.91
2019-02-15T09:22:34.901Z,84.83
2019-02-15T09:25:06.942Z,84.35
2019-02-15T09:28:09.504Z,83.69
2019-02-15T09:30:41.574Z,81.59
2019-02-15T09:33:13.681Z,82.77
2019-02-15T09:35:45.531Z,82.00
2019-02-15T09:38:17.391Z,80.91
2019-02-15T09:40:49.402Z,80.44
2019-02-15T09:43:21.307Z,80.12
2019-02-15T09:45:53.274Z,78.53
2019-02-15T09:48:25.135Z,77.07
2019-02-15T09:50:57.084Z,76.19
2019-02-15T09:53:28.975Z,76.04
2019-02-15T09:56:00.891Z,77.83
2019-02-15T09:58:32.969Z,78.55
2019-02-15T10:01:04.910Z,76.17
2019-02-15T10:03:36.874Z,74.31
2019-02-15T10:06:08.732Z,73.36
2019-02-15T10:08:40.683Z,75.63
2019-02-15T10:11:12.541Z,75.01
2019-02-15T10:13:44.501Z,73.22
2019-02-15T10:16:16.463Z,72.54
2019-02-15T10:18:48.306Z,71.58
2019-02-15T10:21:20.228Z,70.51
2019-02-15T10:23:52.271Z,70.07
2019-02-15T10:26:24.159Z,69.26
2019-02-15T10:28:57.047Z,68.24
2019-02-15T10:31:29.840Z,65.41
2019-02-15T10:34:01.767Z,65.22
2019-02-15T10:36:33.710Z,64.57
2019-02-15T10:39:07.105Z,62.63
2019-02-15T10:41:39.125Z,63.35
2019-02-15T10:44:11.003Z,62.47
2019-02-15T10:46:42.884Z,61.99
2019-02-15T10:49:14.835Z,62.29
2019-02-15T10:51:46.875Z,61.86
2019-02-15T10:54:18.806Z,62.26
2019-02-15T10:56:50.702Z,61.24
2019-02-15T10:59:22.658Z,59.96
2019-02-15T11:01:54.731Z,60.61
2019-02-15T11:04:26.817Z,59.99
2019-02-15T11:06:58.808Z,59.72
2019-02-15T11:09:30.719Z,59.57
2019-02-15T11:12:02.583Z,57.91
2019-02-15T11:14:34.493Z,56.83
2019-02-15T11:17:06.518Z,56.42
2019-02-15T11:19:38.414Z,56.74
2019-02-15T11:22:10.303Z,57.84
2019-02-15T11:24:42.808Z,56.78
2019-02-15T11:27:14.700Z,56.43
2019-02-15T11:29:47.575Z,56.42
2019-02-15T11:32:19.399Z,56.05
2019-02-15T11:34:51.335Z,54.41
2019-02-15T11:37:23.347Z,54.58
2019-02-15T11:39:55.311Z,54.64
2019-02-15T11:42:27.571Z,53.10
2019-02-15T11:44:59.428Z,53.62
2019-02-15T11:47:31.651Z,53.37
2019-02-15T11:50:03.743Z,54.89
2019-02-15T11:52:36.016Z,54.98
2019-02-15T11:55:08.393Z,53.91
2019-02-15T11:57:40.318Z,54.00
2019-02-15T12:00:18.454Z,54.01
2019-02-15T12:02:50.135Z,53.37
2019-02-15T12:05:22.051Z,54.32
2019-02-15T12:07:55.842Z,53.49
2019-02-15T12:10:28.809Z,52.66
2019-02-15T12:13:00.761Z,52.67
2019-02-15T12:15:32.717Z,53.41
2019-02-15T12:18:05.469Z,53.29
2019-02-15T12:20:37.307Z,51.31
2019-02-15T12:23:14.395Z,52.05
2019-02-15T12:25:46.347Z,52.00
2019-02-15T12:28:18.503Z,52.16
2019-02-15T12:30:50.400Z,50.27
2019-02-15T12:33:22.505Z,50.31
2019-02-15T12:35:54.482Z,50.07
2019-02-15T12:38:26.581Z,49.40
2019-02-15T12:40:58.598Z,49.25
2019-02-15T12:43:30.791Z,48.63
2019-02-15T12:46:02.951Z,48.09
2019-02-15T12:48:34.886Z,47.04
2019-02-15T12:51:06.770Z,46.82
2019-02-15T12:53:38.734Z,47.83
2019-02-15T12:56:10.740Z,46.24
2019-02-15T12:58:42.925Z,46.56
2019-02-15T13:01:14.823Z,46.39
2019-02-15T13:03:54.238Z,46.87
2019-02-15T13:06:28.613Z,45.44
2019-02-15T13:09:00.030Z,43.75
2019-02-15T13:11:31.974Z,43.51
2019-02-15T13:14:04.048Z,43.60
2019-02-15T13:16:36.102Z,44.58
2019-02-15T13:19:09.326Z,43.96
2019-02-15T13:21:43.260Z,44.32
2019-02-15T13:24:15.176Z,43.99
2019-02-15T13:26:48.022Z,43.71
2019-02-15T13:29:20.446Z,42.84
2019-02-15T13:31:52.539Z,40.60
2019-02-15T13:34:24.784Z,39.90
2019-02-15T13:36:56.979Z,40.73
2019-02-15T13:39:28.895Z,42.19
2019-02-15T13:42:00.916Z,40.75
2019-02-15T13:44:32.930Z,40.87
2019-02-15T13:47:04.950Z,40.33
2019-02-15T13:49:36.790Z,38.32
2019-02-15T13:52:53.346Z,39.22
2019-02-15T13:55:27.782Z,38.69
2019-02-15T13:58:00.272Z,37.26
2019-02-15T14:00:34.035Z,36.95
2019-02-15T14:03:06.078Z,39.13
2019-02-15T14:05:41.228Z,39.85
2019-02-15T14:08:15.108Z,39.06
2019-02-15T14:10:53.030Z,39.27
2019-02-15T14:13:24.965Z,38.94
2019-02-15T14:15:56.801Z,39.00
2019-02-15T14:18:28.636Z,36.78
2019-02-15T14:21:00.565Z,37.68
2019-02-15T14:23:32.477Z,39.26
2019-02-15T14:26:07.988Z,37.85
2019-02-15T14:28:39.946Z,39.16
2019-02-15T14:31:14.000Z,37.19
2019-02-15T14:33:45.838Z,37.76
2019-02-15T14:36:17.731Z,37.30
2019-02-15T14:38:51.218Z,37.86
2019-02-15T14:41:25.991Z,37.85
2019-02-15T14:43:58.425Z,37.29
2019-02-15T14:46:30.305Z,37.61
2019-02-15T14:49:02.189Z,37.16
2019-02-15T14:51:35.326Z,37.09
2019-02-15T14:54:07.203Z,37.38
2019-02-15T14:56:39.270Z,37.54
2019-02-15T14:59:11.314Z,37.09
2019-02-15T15:01:43.230Z,37.16
2019-02-15T15:04:16.111Z,37.46
2019-02-15T15:06:47.910Z,37.70
2019-02-15T15:09:19.868Z,38.15
2019-02-15T15:11:52.908Z,38.87
2019-02-15T15:14:24.888Z,39.15
2019-02-15T15:16:56.703Z,40.07
2019-02-15T15:19:28.563Z,40.32
2019-02-15T15:22:00.480Z,40.47
2019-02-15T15:24:32.464Z,40.38
2019-02-15T15:27:04.400Z,41.64
2019-02-15T15:29:36.335Z,42.69
2019-02-15T15:32:08.188Z,43.21
2019-02-15T15:34:40.810Z,43.87
2019-02-15T15:37:16.611Z,44.11
2019-02-15T15:39:46.182Z,44.39
2019-02-15T15:42:17.980Z,44.55
2019-02-15T15:44:49.835Z,44.59
2019-02-15T15:47:21.636Z,44.92
2019-02-15T15:49:53.635Z,45.31
2019-02-15T15:52:25.497Z,45.80
2019-02-15T15:54:57.367Z,46.31
2019-02-15T15:57:29.188Z,46.47
2019-02-15T16:00:01.055Z,46.78
2019-02-15T16:02:34.754Z,46.87
2019-02-15T16:05:07.049Z,47.00
2019-02-15T16:07:38.985Z,47.36
2019-02-15T16:10:12.714Z,47.05
2019-02-15T16:12:44.629Z,47.22
2019-02-15T16:15:16.499Z,46.97
2019-02-15T16:17:48.333Z,47.31
2019-02-15T16:20:20.241Z,48.05
2019-02-15T16:22:52.442Z,48.34
2019-02-15T16:25:24.325Z,48.16
2019-02-15T16:27:56.293Z,48.30
2019-02-15T16:30:30.253Z,47.83
2019-02-15T16:33:05.329Z,47.66
2019-02-15T16:35:37.323Z,48.64
2019-02-15T16:38:12.065Z,49.37
2019-02-15T16:40:44.052Z,50.09
2019-02-15T16:43:16.290Z,50.34
2019-02-15T16:45:49.944Z,50.10
2019-02-15T16:48:23.664Z,50.48
2019-02-15T16:50:55.677Z,51.27
2019-02-15T16:53:27.649Z,51.83
2019-02-15T16:56:09.597Z,52.59
2019-02-15T16:58:46.405Z,53.56
2019-02-15T17:01:18.552Z,53.52
2019-02-15T17:03:50.844Z,53.59
2019-02-15T17:06:23.372Z,53.95
2019-02-15T17:08:55.612Z,54.30
2019-02-15T17:11:27.735Z,55.05
2019-02-15T17:13:59.718Z,54.65
2019-02-15T17:16:34.836Z,54.81
2019-02-15T17:19:06.814Z,55.21
2019-02-15T17:21:38.918Z,56.28
2019-02-15T17:24:11.103Z,56.42
2019-02-15T17:26:43.228Z,56.43
2019-02-15T17:29:15.336Z,56.66
2019-02-15T17:32:07.814Z,56.90
2019-02-15T17:34:39.840Z,57.26
2019-02-15T17:37:11.808Z,57.63
2019-02-15T17:39:43.991Z,57.84
2019-02-15T17:42:17.688Z,58.21
2019-02-15T17:44:49.862Z,58.79
2019-02-15T17:47:25.208Z,58.89
2019-02-15T17:49:57.480Z,58.75
2019-02-15T17:52:29.798Z,58.82
2019-02-15T17:55:07.318Z,58.91
2019-02-15T17:57:45.512Z,59.03
2019-02-15T18:00:28.747Z,59.12
2019-02-15T18:03:00.849Z,59.48
2019-02-15T18:05:42.612Z,59.87
2019-02-15T18:08:28.193Z,60.49
2019-02-15T18:11:04.408Z,60.99
2019-02-15T18:13:39.314Z,61.46
2019-02-15T18:16:23.914Z,63.19
2019-02-15T18:18:58.889Z,63.31
2019-02-15T18:21:34.483Z,62.92
2019-02-15T18:24:39.386Z,63.22
2019-02-15T18:31:01.016Z,63.69
2019-02-15T18:33:38.850Z,63.34
2019-02-15T18:45:54.914Z,63.07
2019-02-15T18:49:28.069Z,63.09
2019-02-15T18:52:16.163Z,63.31
2019-02-15T18:54:49.250Z,63.83
2019-02-15T18:57:53.146Z,64.71
2019-02-15T19:00:29.303Z,65.14
2019-02-15T19:03:13.485Z,65.25
2019-02-15T19:05:49.313Z,66.02
2019-02-15T19:08:23.551Z,66.08
2019-02-15T19:10:58.082Z,66.07
2019-02-15T19:13:43.466Z,65.70
2019-02-15T19:16:27.959Z,65.64
2019-02-15T19:19:07.666Z,66.11
2019-02-15T19:21:43.074Z,66.14
2019-02-15T19:24:15.803Z,66.38
2019-02-15T19:26:48.187Z,66.62
2019-02-15T19:29:20.526Z,66.79
2019-02-15T19:31:55.727Z,66.53
2019-02-15T19:34:28.739Z,66.66
2019-02-15T19:37:11.537Z,67.00
2019-02-15T19:39:45.506Z,66.76
2019-02-15T19:42:55.603Z,66.97
2019-02-15T19:45:46.431Z,67.03
2019-02-15T19:49:12.564Z,66.85
2019-02-15T19:52:17.864Z,66.35
2019-02-15T19:55:40.249Z,66.15
2019-02-15T21:39:51.130Z,70.80
2019-02-15T21:43:01.796Z,71.13
2019-02-15T21:46:02.552Z,70.83
2019-02-15T21:49:15.374Z,70.82
2019-02-15T21:51:50.751Z,70.79
2019-02-15T21:54:55.094Z,70.83
2019-02-15T21:57:32.755Z,70.97
2019-02-15T22:00:44.199Z,70.88
2019-02-15T22:03:58.672Z,70.93
2019-02-15T22:07:14.026Z,71.18
2019-02-15T22:10:28.371Z,71.58
2019-02-15T22:13:08.882Z,72.06
2019-02-15T22:15:44.960Z,72.51
2019-02-15T22:18:17.171Z,72.39
2019-02-15T22:20:52.786Z,72.07
2019-02-15T22:23:27.049Z,72.79
2019-02-15T22:26:02.007Z,72.55
2019-02-15T22:28:34.422Z,73.93
2019-02-15T22:31:08.315Z,74.24
2019-02-15T22:33:42.927Z,73.63
2019-02-15T22:36:15.111Z,73.23
2019-02-15T22:39:09.506Z,73.28
2019-02-15T22:41:41.998Z,74.48
2019-02-15T22:44:15.557Z,74.76
2019-02-15T22:46:50.100Z,75.12
2019-02-15T22:49:25.989Z,74.11
2019-02-15T22:52:00.687Z,74.79
2019-02-15T22:54:32.641Z,74.52
2019-02-15T22:57:04.639Z,74.13
2019-02-15T22:59:36.595Z,74.01
2019-02-15T23:02:08.948Z,74.55
2019-02-15T23:04:47.644Z,74.23
2019-02-15T23:07:24.076Z,73.92
2019-02-15T23:09:56.195Z,73.78
2019-02-15T23:12:30.013Z,73.70
2019-02-15T23:15:05.221Z,74.29
2019-02-15T23:17:37.426Z,74.48
2019-02-15T23:20:12.338Z,74.68
2019-02-15T23:22:44.255Z,74.86
2019-02-15T23:25:19.091Z,74.80
2019-02-15T23:27:51.077Z,74.75
2019-02-15T23:30:23.694Z,74.70
2019-02-15T23:33:01.740Z,74.82
2019-02-15T23:35:37.195Z,75.15
2019-02-15T23:38:12.571Z,75.40
2019-02-15T23:40:44.999Z,75.61
2019-02-15T23:43:20.385Z,76.17
2019-02-15T23:45:52.938Z,76.09
2019-02-15T23:48:29.727Z,76.49
2019-02-15T23:51:01.581Z,76.36
2019-02-15T23:53:41.299Z,76.54
2019-02-15T23:56:16.745Z,76.79
2019-02-15T23:58:49.348Z,76.57
